sensor_id;sensor_type;location;lat;lon;timestamp;P1;durP1;ratioP1;P2;durP2;ratioP2
28007;SDS011;15333;50.010;20.020;2023-03-26T00:02:43;6.47;;;2.65;;
28007;SDS011;15333;50.010;20.020;2023-03-26T00:05:44;5.15;;;2.38;;
28007;SDS011;15333;50.010;20.020;2023-03-26T00:08:48;6.32;;;2.80;;
28007;SDS011;15333;50.010;20.020;2023-03-26T00:11:50;5.93;;;2.38;;
28007;SDS011;15333;50.010;20.020;2023-03-26T00:14:51;5.60;;;2.15;;
28007;SDS011;15333;50.010;20.020;2023-03-26T00:17:52;4.57;;;2.33;;
28007;SDS011;15333;50.010;20.020;2023-03-26T00:20:53;4.47;;;2.20;;
28007;SDS011;15333;50.010;20.020;2023-03-26T00:23:55;6.15;;;2.30;;
28007;SDS011;15333;50.010;20.020;2023-03-26T00:26:59;4.32;;;2.00;;
28007;SDS011;15333;50.010;20.020;2023-03-26T00:30:00;4.30;;;2.00;;
28007;SDS011;15333;50.010;20.020;2023-03-26T00:33:03;2.80;;;1.73;;
28007;SDS011;15333;50.010;20.020;2023-03-26T00:36:05;3.85;;;2.00;;
28007;SDS011;15333;50.010;20.020;2023-03-26T00:39:11;5.20;;;2.22;;
28007;SDS011;15333;50.010;20.020;2023-03-26T00:42:13;4.40;;;2.13;;
28007;SDS011;15333;50.010;20.020;2023-03-26T00:45:15;4.47;;;2.22;;
28007;SDS011;15333;50.010;20.020;2023-03-26T00:48:16;5.63;;;2.28;;
28007;SDS011;15333;50.010;20.020;2023-03-26T00:51:19;5.60;;;2.03;;
28007;SDS011;15333;50.010;20.020;2023-03-26T00:54:20;5.10;;;2.05;;
28007;SDS011;15333;50.010;20.020;2023-03-26T00:57:21;3.65;;;1.92;;
28007;SDS011;15333;50.010;20.020;2023-03-26T01:00:29;4.55;;;2.03;;
28007;SDS011;15333;50.010;20.020;2023-03-26T01:03:34;5.85;;;2.40;;
28007;SDS011;15333;50.010;20.020;2023-03-26T01:06:38;5.28;;;2.55;;
28007;SDS011;15333;50.010;20.020;2023-03-26T01:09:42;6.07;;;2.08;;
28007;SDS011;15333;50.010;20.020;2023-03-26T01:12:49;5.47;;;2.20;;
28007;SDS011;15333;50.010;20.020;2023-03-26T01:15:50;4.57;;;2.08;;
28007;SDS011;15333;50.010;20.020;2023-03-26T01:18:52;5.22;;;2.35;;
28007;SDS011;15333;50.010;20.020;2023-03-26T01:21:54;3.90;;;2.60;;
28007;SDS011;15333;50.010;20.020;2023-03-26T01:24:55;4.63;;;2.17;;
28007;SDS011;15333;50.010;20.020;2023-03-26T01:27:56;5.72;;;2.38;;
28007;SDS011;15333;50.010;20.020;2023-03-26T01:31:05;4.50;;;2.20;;
28007;SDS011;15333;50.010;20.020;2023-03-26T01:34:18;5.20;;;2.30;;
28007;SDS011;15333;50.010;20.020;2023-03-26T01:37:43;4.18;;;2.13;;
28007;SDS011;15333;50.010;20.020;2023-03-26T01:47:26;2.38;;;1.80;;
28007;SDS011;15333;50.010;20.020;2023-03-26T01:50:27;6.30;;;2.95;;
28007;SDS011;15333;50.010;20.020;2023-03-26T01:53:28;4.85;;;2.30;;
28007;SDS011;15333;50.010;20.020;2023-03-26T01:59:58;6.57;;;1.60;;
28007;SDS011;15333;50.010;20.020;2023-03-26T02:06:22;3.13;;;2.05;;
28007;SDS011;15333;50.010;20.020;2023-03-26T02:09:46;4.70;;;2.40;;
28007;SDS011;15333;50.010;20.020;2023-03-26T02:12:50;3.50;;;2.08;;
28007;SDS011;15333;50.010;20.020;2023-03-26T02:16:02;4.10;;;2.00;;
28007;SDS011;15333;50.010;20.020;2023-03-26T02:19:05;3.17;;;2.00;;
28007;SDS011;15333;50.010;20.020;2023-03-26T02:22:14;5.97;;;2.23;;
28007;SDS011;15333;50.010;20.020;2023-03-26T02:25:18;3.03;;;2.00;;
28007;SDS011;15333;50.010;20.020;2023-03-26T02:28:22;5.70;;;2.10;;
28007;SDS011;15333;50.010;20.020;2023-03-26T02:31:23;3.45;;;1.85;;
28007;SDS011;15333;50.010;20.020;2023-03-26T02:34:27;5.03;;;2.35;;
28007;SDS011;15333;50.010;20.020;2023-03-26T02:37:28;5.78;;;2.45;;
28007;SDS011;15333;50.010;20.020;2023-03-26T02:40:38;5.33;;;1.93;;
28007;SDS011;15333;50.010;20.020;2023-03-26T02:43:39;4.88;;;1.88;;
28007;SDS011;15333;50.010;20.020;2023-03-26T02:46:44;3.97;;;1.95;;
28007;SDS011;15333;50.010;20.020;2023-03-26T02:53:23;5.53;;;2.03;;
28007;SDS011;15333;50.010;20.020;2023-03-26T02:56:48;5.10;;;2.00;;
28007;SDS011;15333;50.010;20.020;2023-03-26T03:00:01;4.35;;;2.70;;
28007;SDS011;15333;50.010;20.020;2023-03-26T03:03:13;8.43;;;2.95;;
28007;SDS011;15333;50.010;20.020;2023-03-26T03:06:39;6.05;;;2.75;;
28007;SDS011;15333;50.010;20.020;2023-03-26T03:09:40;4.32;;;1.83;;
28007;SDS011;15333;50.010;20.020;2023-03-26T03:13:13;2.90;;;1.90;;
28007;SDS011;15333;50.010;20.020;2023-03-26T03:16:15;5.15;;;1.80;;
28007;SDS011;15333;50.010;20.020;2023-03-26T03:19:16;4.80;;;1.88;;
28007;SDS011;15333;50.010;20.020;2023-03-26T03:22:17;3.20;;;1.95;;
28007;SDS011;15333;50.010;20.020;2023-03-26T03:25:22;3.63;;;1.90;;
28007;SDS011;15333;50.010;20.020;2023-03-26T03:28:25;4.88;;;1.83;;
28007;SDS011;15333;50.010;20.020;2023-03-26T03:31:26;4.38;;;1.80;;
28007;SDS011;15333;50.010;20.020;2023-03-26T03:34:33;7.05;;;1.95;;
28007;SDS011;15333;50.010;20.020;2023-03-26T03:37:34;3.88;;;1.83;;
28007;SDS011;15333;50.010;20.020;2023-03-26T03:40:35;2.20;;;1.50;;
28007;SDS011;15333;50.010;20.020;2023-03-26T03:43:37;6.15;;;1.70;;
28007;SDS011;15333;50.010;20.020;2023-03-26T03:46:49;4.97;;;1.80;;
28007;SDS011;15333;50.010;20.020;2023-03-26T03:49:54;4.65;;;1.98;;
28007;SDS011;15333;50.010;20.020;2023-03-26T03:52:56;6.18;;;1.95;;
28007;SDS011;15333;50.010;20.020;2023-03-26T03:55:59;3.47;;;1.70;;
28007;SDS011;15333;50.010;20.020;2023-03-26T03:59:20;6.00;;;2.10;;
28007;SDS011;15333;50.010;20.020;2023-03-26T04:02:23;4.63;;;1.90;;
28007;SDS011;15333;50.010;20.020;2023-03-26T04:05:33;3.42;;;1.80;;
28007;SDS011;15333;50.010;20.020;2023-03-26T04:08:34;8.18;;;2.00;;
28007;SDS011;15333;50.010;20.020;2023-03-26T04:11:39;4.63;;;1.60;;
28007;SDS011;15333;50.010;20.020;2023-03-26T04:14:52;3.70;;;1.80;;
28007;SDS011;15333;50.010;20.020;2023-03-26T04:17:54;3.13;;;1.80;;
28007;SDS011;15333;50.010;20.020;2023-03-26T04:20:56;2.50;;;1.80;;
28007;SDS011;15333;50.010;20.020;2023-03-26T04:24:03;4.40;;;2.15;;
28007;SDS011;15333;50.010;20.020;2023-03-26T04:27:24;5.35;;;2.22;;
28007;SDS011;15333;50.010;20.020;2023-03-26T04:30:38;3.47;;;1.83;;
28007;SDS011;15333;50.010;20.020;2023-03-26T04:34:21;7.78;;;2.30;;
28007;SDS011;15333;50.010;20.020;2023-03-26T04:37:36;4.68;;;2.22;;
28007;SDS011;15333;50.010;20.020;2023-03-26T04:40:46;6.28;;;2.45;;
28007;SDS011;15333;50.010;20.020;2023-03-26T04:44:01;4.32;;;2.20;;
28007;SDS011;15333;50.010;20.020;2023-03-26T04:47:19;3.63;;;2.15;;
28007;SDS011;15333;50.010;20.020;2023-03-26T04:50:21;5.03;;;2.10;;
28007;SDS011;15333;50.010;20.020;2023-03-26T04:53:22;5.13;;;2.30;;
28007;SDS011;15333;50.010;20.020;2023-03-26T04:59:48;6.55;;;2.53;;
28007;SDS011;15333;50.010;20.020;2023-03-26T05:02:49;5.35;;;2.80;;
28007;SDS011;15333;50.010;20.020;2023-03-26T05:05:53;3.33;;;1.77;;
28007;SDS011;15333;50.010;20.020;2023-03-26T05:08:54;3.63;;;1.90;;
28007;SDS011;15333;50.010;20.020;2023-03-26T05:12:16;3.03;;;1.88;;
28007;SDS011;15333;50.010;20.020;2023-03-26T05:15:52;2.55;;;1.42;;
28007;SDS011;15333;50.010;20.020;2023-03-26T05:19:06;4.03;;;1.83;;
28007;SDS011;15333;50.010;20.020;2023-03-26T05:22:09;3.90;;;2.00;;
28007;SDS011;15333;50.010;20.020;2023-03-26T05:25:16;3.33;;;2.20;;
28007;SDS011;15333;50.010;20.020;2023-03-26T05:28:18;6.40;;;2.40;;
28007;SDS011;15333;50.010;20.020;2023-03-26T05:31:38;3.58;;;2.10;;
28007;SDS011;15333;50.010;20.020;2023-03-26T05:34:39;3.55;;;1.70;;
28007;SDS011;15333;50.010;20.020;2023-03-26T05:37:41;5.90;;;2.03;;
28007;SDS011;15333;50.010;20.020;2023-03-26T05:40:44;4.82;;;2.17;;
28007;SDS011;15333;50.010;20.020;2023-03-26T05:43:50;5.03;;;2.00;;
28007;SDS011;15333;50.010;20.020;2023-03-26T05:46:55;5.85;;;2.03;;
28007;SDS011;15333;50.010;20.020;2023-03-26T05:50:00;6.60;;;2.33;;
28007;SDS011;15333;50.010;20.020;2023-03-26T05:53:01;5.72;;;1.60;;
28007;SDS011;15333;50.010;20.020;2023-03-26T05:56:34;4.78;;;2.00;;
28007;SDS011;15333;50.010;20.020;2023-03-26T05:59:54;6.05;;;2.20;;
28007;SDS011;15333;50.010;20.020;2023-03-26T06:03:14;5.63;;;2.08;;
28007;SDS011;15333;50.010;20.020;2023-03-26T06:06:36;5.00;;;1.88;;
28007;SDS011;15333;50.010;20.020;2023-03-26T06:09:38;4.00;;;1.67;;
28007;SDS011;15333;50.010;20.020;2023-03-26T06:12:40;5.00;;;1.90;;
28007;SDS011;15333;50.010;20.020;2023-03-26T06:15:41;7.32;;;1.90;;
28007;SDS011;15333;50.010;20.020;2023-03-26T06:18:54;6.55;;;1.85;;
28007;SDS011;15333;50.010;20.020;2023-03-26T06:22:21;2.42;;;1.63;;
28007;SDS011;15333;50.010;20.020;2023-03-26T06:25:45;7.00;;;1.90;;
28007;SDS011;15333;50.010;20.020;2023-03-26T06:29:13;7.15;;;1.95;;
28007;SDS011;15333;50.010;20.020;2023-03-26T06:32:29;3.05;;;1.70;;
28007;SDS011;15333;50.010;20.020;2023-03-26T06:35:53;3.42;;;1.98;;
28007;SDS011;15333;50.010;20.020;2023-03-26T06:38:54;5.10;;;2.22;;
28007;SDS011;15333;50.010;20.020;2023-03-26T06:41:56;6.18;;;2.22;;
28007;SDS011;15333;50.010;20.020;2023-03-26T06:45:16;4.63;;;2.38;;
28007;SDS011;15333;50.010;20.020;2023-03-26T06:48:38;5.97;;;2.38;;
28007;SDS011;15333;50.010;20.020;2023-03-26T06:51:59;4.45;;;1.98;;
28007;SDS011;15333;50.010;20.020;2023-03-26T06:55:16;2.95;;;1.58;;
28007;SDS011;15333;50.010;20.020;2023-03-26T06:58:28;3.75;;;1.40;;
28007;SDS011;15333;50.010;20.020;2023-03-26T07:01:29;6.15;;;2.10;;
28007;SDS011;15333;50.010;20.020;2023-03-26T07:04:49;3.92;;;1.60;;
28007;SDS011;15333;50.010;20.020;2023-03-26T07:08:29;3.60;;;1.27;;
28007;SDS011;15333;50.010;20.020;2023-03-26T07:11:49;5.82;;;1.90;;
28007;SDS011;15333;50.010;20.020;2023-03-26T07:15:00;5.05;;;1.60;;
28007;SDS011;15333;50.010;20.020;2023-03-26T07:18:21;6.55;;;2.25;;
28007;SDS011;15333;50.010;20.020;2023-03-26T07:21:23;5.38;;;1.52;;
28007;SDS011;15333;50.010;20.020;2023-03-26T07:24:26;6.20;;;1.63;;
28007;SDS011;15333;50.010;20.020;2023-03-26T07:31:50;7.97;;;1.58;;
28007;SDS011;15333;50.010;20.020;2023-03-26T07:35:12;7.50;;;2.33;;
28007;SDS011;15333;50.010;20.020;2023-03-26T07:46:30;5.38;;;1.80;;
28007;SDS011;15333;50.010;20.020;2023-03-26T07:50:00;5.10;;;1.77;;
28007;SDS011;15333;50.010;20.020;2023-03-26T07:53:21;4.13;;;1.70;;
28007;SDS011;15333;50.010;20.020;2023-03-26T07:56:52;8.88;;;2.05;;
28007;SDS011;15333;50.010;20.020;2023-03-26T08:00:32;5.72;;;1.90;;
28007;SDS011;15333;50.010;20.020;2023-03-26T08:03:50;5.55;;;1.60;;
28007;SDS011;15333;50.010;20.020;2023-03-26T08:20:46;5.80;;;2.38;;
28007;SDS011;15333;50.010;20.020;2023-03-26T08:24:36;3.17;;;1.30;;
28007;SDS011;15333;50.010;20.020;2023-03-26T08:27:25;4.07;;;1.42;;
28007;SDS011;15333;50.010;20.020;2023-03-26T08:30:37;3.33;;;1.60;;
28007;SDS011;15333;50.010;20.020;2023-03-26T08:33:38;5.68;;;1.75;;
28007;SDS011;15333;50.010;20.020;2023-03-26T08:36:40;2.70;;;1.38;;
28007;SDS011;15333;50.010;20.020;2023-03-26T08:39:41;3.63;;;1.60;;
28007;SDS011;15333;50.010;20.020;2023-03-26T08:52:56;3.80;;;1.75;;
28007;SDS011;15333;50.010;20.020;2023-03-26T09:21:13;2.25;;;1.30;;
28007;SDS011;15333;50.010;20.020;2023-03-26T10:00:07;3.92;;;1.48;;
28007;SDS011;15333;50.010;20.020;2023-03-26T10:06:34;2.55;;;1.38;;
28007;SDS011;15333;50.010;20.020;2023-03-26T10:10:03;2.67;;;1.20;;
28007;SDS011;15333;50.010;20.020;2023-03-26T10:27:28;3.42;;;1.38;;
28007;SDS011;15333;50.010;20.020;2023-03-26T10:37:36;3.42;;;1.67;;
28007;SDS011;15333;50.010;20.020;2023-03-26T10:54:45;4.40;;;1.35;;
28007;SDS011;15333;50.010;20.020;2023-03-26T10:57:55;4.30;;;1.50;;
28007;SDS011;15333;50.010;20.020;2023-03-26T11:01:01;3.45;;;1.50;;
28007;SDS011;15333;50.010;20.020;2023-03-26T11:04:08;3.08;;;1.40;;
28007;SDS011;15333;50.010;20.020;2023-03-26T11:07:27;4.03;;;1.60;;
28007;SDS011;15333;50.010;20.020;2023-03-26T11:14:09;3.53;;;1.10;;
28007;SDS011;15333;50.010;20.020;2023-03-26T11:33:47;2.17;;;1.25;;
28007;SDS011;15333;50.010;20.020;2023-03-26T11:36:52;3.80;;;1.45;;
28007;SDS011;15333;50.010;20.020;2023-03-26T11:39:56;2.38;;;1.20;;
28007;SDS011;15333;50.010;20.020;2023-03-26T11:43:02;2.28;;;1.15;;
28007;SDS011;15333;50.010;20.020;2023-03-26T11:46:08;2.97;;;1.48;;
28007;SDS011;15333;50.010;20.020;2023-03-26T11:49:13;2.85;;;1.40;;
28007;SDS011;15333;50.010;20.020;2023-03-26T11:52:18;2.63;;;1.30;;
28007;SDS011;15333;50.010;20.020;2023-03-26T11:55:20;2.13;;;1.00;;
28007;SDS011;15333;50.010;20.020;2023-03-26T11:58:28;1.50;;;0.90;;
28007;SDS011;15333;50.010;20.020;2023-03-26T12:08:27;2.95;;;1.05;;
28007;SDS011;15333;50.010;20.020;2023-03-26T12:11:32;6.03;;;1.33;;
28007;SDS011;15333;50.010;20.020;2023-03-26T12:14:34;2.88;;;1.20;;
28007;SDS011;15333;50.010;20.020;2023-03-26T12:17:41;3.20;;;0.90;;
28007;SDS011;15333;50.010;20.020;2023-03-26T12:20:42;1.63;;;1.08;;
28007;SDS011;15333;50.010;20.020;2023-03-26T12:23:58;2.70;;;1.30;;
28007;SDS011;15333;50.010;20.020;2023-03-26T12:27:23;2.58;;;1.15;;
28007;SDS011;15333;50.010;20.020;2023-03-26T12:30:26;2.50;;;1.20;;
28007;SDS011;15333;50.010;20.020;2023-03-26T12:33:31;3.05;;;1.20;;
28007;SDS011;15333;50.010;20.020;2023-03-26T12:36:38;4.90;;;2.13;;
28007;SDS011;15333;50.010;20.020;2023-03-26T12:39:40;5.07;;;1.90;;
28007;SDS011;15333;50.010;20.020;2023-03-26T12:42:43;3.40;;;2.38;;
28007;SDS011;15333;50.010;20.020;2023-03-26T12:45:54;3.30;;;1.20;;
28007;SDS011;15333;50.010;20.020;2023-03-26T12:48:58;3.33;;;1.40;;
28007;SDS011;15333;50.010;20.020;2023-03-26T13:01:58;3.20;;;1.70;;
28007;SDS011;15333;50.010;20.020;2023-03-26T13:08:46;3.33;;;1.70;;
28007;SDS011;15333;50.010;20.020;2023-03-26T13:21:32;2.78;;;1.38;;
28007;SDS011;15333;50.010;20.020;2023-03-26T13:31:55;5.25;;;1.70;;
28007;SDS011;15333;50.010;20.020;2023-03-26T13:35:21;4.57;;;2.08;;
28007;SDS011;15333;50.010;20.020;2023-03-26T13:45:19;3.33;;;1.25;;
28007;SDS011;15333;50.010;20.020;2023-03-26T13:55:31;4.30;;;1.30;;
28007;SDS011;15333;50.010;20.020;2023-03-26T13:58:46;2.88;;;1.20;;
28007;SDS011;15333;50.010;20.020;2023-03-26T14:01:53;3.80;;;1.83;;
28007;SDS011;15333;50.010;20.020;2023-03-26T14:05:06;2.90;;;1.60;;
28007;SDS011;15333;50.010;20.020;2023-03-26T14:08:31;5.45;;;1.40;;
28007;SDS011;15333;50.010;20.020;2023-03-26T14:11:45;2.30;;;1.23;;
28007;SDS011;15333;50.010;20.020;2023-03-26T14:15:39;6.20;;;2.08;;
28007;SDS011;15333;50.010;20.020;2023-03-26T14:19:02;1.90;;;1.30;;
28007;SDS011;15333;50.010;20.020;2023-03-26T14:29:24;2.67;;;1.65;;
28007;SDS011;15333;50.010;20.020;2023-03-26T14:32:31;2.85;;;1.45;;
28007;SDS011;15333;50.010;20.020;2023-03-26T14:35:39;4.00;;;1.35;;
28007;SDS011;15333;50.010;20.020;2023-03-26T14:41:55;3.17;;;1.52;;
28007;SDS011;15333;50.010;20.020;2023-03-26T14:51:53;6.63;;;1.83;;
28007;SDS011;15333;50.010;20.020;2023-03-26T14:55:01;2.85;;;1.20;;
28007;SDS011;15333;50.010;20.020;2023-03-26T15:19:05;3.33;;;1.80;;
28007;SDS011;15333;50.010;20.020;2023-03-26T15:26:02;3.55;;;1.67;;
28007;SDS011;15333;50.010;20.020;2023-03-26T15:43:22;2.88;;;1.60;;
28007;SDS011;15333;50.010;20.020;2023-03-26T15:53:22;3.35;;;2.15;;
28007;SDS011;15333;50.010;20.020;2023-03-26T16:03:23;3.90;;;1.73;;
28007;SDS011;15333;50.010;20.020;2023-03-26T16:06:36;3.78;;;1.48;;
28007;SDS011;15333;50.010;20.020;2023-03-26T16:16:18;3.22;;;1.70;;
28007;SDS011;15333;50.010;20.020;2023-03-26T16:33:36;4.55;;;1.90;;
28007;SDS011;15333;50.010;20.020;2023-03-26T16:36:49;5.32;;;2.10;;
28007;SDS011;15333;50.010;20.020;2023-03-26T16:39:51;4.88;;;2.13;;
28007;SDS011;15333;50.010;20.020;2023-03-26T17:03:09;6.63;;;2.60;;
28007;SDS011;15333;50.010;20.020;2023-03-26T17:09:38;6.28;;;2.47;;
28007;SDS011;15333;50.010;20.020;2023-03-26T17:13:35;7.38;;;2.35;;
28007;SDS011;15333;50.010;20.020;2023-03-26T17:16:41;7.28;;;2.95;;
28007;SDS011;15333;50.010;20.020;2023-03-26T17:20:01;5.78;;;2.17;;
28007;SDS011;15333;50.010;20.020;2023-03-26T17:37:48;9.75;;;3.40;;
28007;SDS011;15333;50.010;20.020;2023-03-26T17:43:55;14.63;;;3.88;;
28007;SDS011;15333;50.010;20.020;2023-03-26T17:46:56;6.88;;;3.95;;
28007;SDS011;15333;50.010;20.020;2023-03-26T17:50:11;8.35;;;4.00;;
28007;SDS011;15333;50.010;20.020;2023-03-26T17:53:17;8.75;;;4.65;;
28007;SDS011;15333;50.010;20.020;2023-03-26T17:56:20;11.10;;;4.38;;
28007;SDS011;15333;50.010;20.020;2023-03-26T17:59:27;10.80;;;5.07;;
28007;SDS011;15333;50.010;20.020;2023-03-26T18:02:36;10.55;;;4.57;;
28007;SDS011;15333;50.010;20.020;2023-03-26T18:05:42;8.27;;;4.22;;
28007;SDS011;15333;50.010;20.020;2023-03-26T18:08:53;9.30;;;4.00;;
28007;SDS011;15333;50.010;20.020;2023-03-26T18:12:09;10.02;;;4.78;;
28007;SDS011;15333;50.010;20.020;2023-03-26T18:18:49;8.07;;;4.57;;
28007;SDS011;15333;50.010;20.020;2023-03-26T18:21:57;10.18;;;5.10;;
28007;SDS011;15333;50.010;20.020;2023-03-26T18:25:02;9.52;;;5.05;;
28007;SDS011;15333;50.010;20.020;2023-03-26T18:28:04;9.90;;;5.35;;
28007;SDS011;15333;50.010;20.020;2023-03-26T18:31:09;13.15;;;6.43;;
28007;SDS011;15333;50.010;20.020;2023-03-26T18:40:24;12.38;;;5.85;;
28007;SDS011;15333;50.010;20.020;2023-03-26T18:43:30;12.43;;;6.60;;
28007;SDS011;15333;50.010;20.020;2023-03-26T18:46:33;13.40;;;6.35;;
28007;SDS011;15333;50.010;20.020;2023-03-26T18:49:34;18.20;;;7.40;;
28007;SDS011;15333;50.010;20.020;2023-03-26T18:52:35;11.75;;;6.32;;
28007;SDS011;15333;50.010;20.020;2023-03-26T18:55:36;13.23;;;6.25;;
28007;SDS011;15333;50.010;20.020;2023-03-26T18:58:38;14.77;;;6.18;;
28007;SDS011;15333;50.010;20.020;2023-03-26T19:01:41;11.35;;;5.93;;
28007;SDS011;15333;50.010;20.020;2023-03-26T19:04:44;11.65;;;5.50;;
28007;SDS011;15333;50.010;20.020;2023-03-26T19:07:46;14.77;;;6.13;;
28007;SDS011;15333;50.010;20.020;2023-03-26T19:10:51;13.55;;;5.65;;
28007;SDS011;15333;50.010;20.020;2023-03-26T19:13:58;13.30;;;6.53;;
28007;SDS011;15333;50.010;20.020;2023-03-26T19:17:06;11.73;;;5.80;;
28007;SDS011;15333;50.010;20.020;2023-03-26T19:20:12;9.52;;;5.45;;
28007;SDS011;15333;50.010;20.020;2023-03-26T19:23:20;14.10;;;6.03;;
28007;SDS011;15333;50.010;20.020;2023-03-26T19:26:25;14.32;;;6.00;;
28007;SDS011;15333;50.010;20.020;2023-03-26T19:29:27;11.93;;;5.85;;
28007;SDS011;15333;50.010;20.020;2023-03-26T19:32:32;12.38;;;6.55;;
28007;SDS011;15333;50.010;20.020;2023-03-26T19:35:37;12.10;;;6.53;;
28007;SDS011;15333;50.010;20.020;2023-03-26T19:41:49;11.67;;;6.00;;
28007;SDS011;15333;50.010;20.020;2023-03-26T19:44:52;10.23;;;5.75;;
28007;SDS011;15333;50.010;20.020;2023-03-26T19:47:55;13.85;;;5.45;;
28007;SDS011;15333;50.010;20.020;2023-03-26T19:51:01;12.95;;;6.30;;
28007;SDS011;15333;50.010;20.020;2023-03-26T19:54:13;12.05;;;6.07;;
28007;SDS011;15333;50.010;20.020;2023-03-26T19:57:16;14.18;;;6.28;;
28007;SDS011;15333;50.010;20.020;2023-03-26T20:00:17;13.88;;;6.90;;
28007;SDS011;15333;50.010;20.020;2023-03-26T20:03:26;15.80;;;5.93;;
28007;SDS011;15333;50.010;20.020;2023-03-26T20:06:29;13.55;;;5.57;;
28007;SDS011;15333;50.010;20.020;2023-03-26T20:09:33;9.85;;;5.15;;
28007;SDS011;15333;50.010;20.020;2023-03-26T20:12:34;11.07;;;4.82;;
28007;SDS011;15333;50.010;20.020;2023-03-26T20:15:36;6.90;;;3.90;;
28007;SDS011;15333;50.010;20.020;2023-03-26T20:18:38;10.77;;;3.80;;
28007;SDS011;15333;50.010;20.020;2023-03-26T20:21:39;10.95;;;4.22;;
28007;SDS011;15333;50.010;20.020;2023-03-26T20:24:41;8.70;;;4.22;;
28007;SDS011;15333;50.010;20.020;2023-03-26T20:27:44;6.85;;;4.00;;
28007;SDS011;15333;50.010;20.020;2023-03-26T20:30:46;9.77;;;4.20;;
28007;SDS011;15333;50.010;20.020;2023-03-26T20:33:49;10.93;;;5.03;;
28007;SDS011;15333;50.010;20.020;2023-03-26T20:36:51;14.15;;;6.03;;
28007;SDS011;15333;50.010;20.020;2023-03-26T20:39:56;12.50;;;5.72;;
28007;SDS011;15333;50.010;20.020;2023-03-26T20:42:57;14.73;;;6.45;;
28007;SDS011;15333;50.010;20.020;2023-03-26T20:45:58;15.43;;;7.03;;
28007;SDS011;15333;50.010;20.020;2023-03-26T20:48:59;13.85;;;6.10;;
28007;SDS011;15333;50.010;20.020;2023-03-26T20:52:01;18.65;;;7.22;;
28007;SDS011;15333;50.010;20.020;2023-03-26T20:55:02;12.85;;;7.18;;
28007;SDS011;15333;50.010;20.020;2023-03-26T20:58:07;10.55;;;6.30;;
28007;SDS011;15333;50.010;20.020;2023-03-26T21:01:11;13.88;;;7.13;;
28007;SDS011;15333;50.010;20.020;2023-03-26T21:04:13;14.23;;;7.30;;
28007;SDS011;15333;50.010;20.020;2023-03-26T21:07:16;13.73;;;7.70;;
28007;SDS011;15333;50.010;20.020;2023-03-26T21:10:19;13.73;;;8.05;;
28007;SDS011;15333;50.010;20.020;2023-03-26T21:16:37;22.45;;;8.18;;
28007;SDS011;15333;50.010;20.020;2023-03-26T21:19:38;13.70;;;7.22;;
28007;SDS011;15333;50.010;20.020;2023-03-26T21:22:41;22.20;;;8.18;;
28007;SDS011;15333;50.010;20.020;2023-03-26T21:29:09;18.13;;;8.73;;
28007;SDS011;15333;50.010;20.020;2023-03-26T21:32:11;20.70;;;8.77;;
28007;SDS011;15333;50.010;20.020;2023-03-26T21:35:14;17.58;;;8.27;;
28007;SDS011;15333;50.010;20.020;2023-03-26T21:38:15;23.35;;;9.98;;
28007;SDS011;15333;50.010;20.020;2023-03-26T21:44:46;24.33;;;10.85;;
28007;SDS011;15333;50.010;20.020;2023-03-26T21:47:47;25.67;;;11.65;;
28007;SDS011;15333;50.010;20.020;2023-03-26T21:50:49;20.95;;;9.40;;
28007;SDS011;15333;50.010;20.020;2023-03-26T21:53:50;23.10;;;10.38;;
28007;SDS011;15333;50.010;20.020;2023-03-26T21:56:56;23.95;;;9.90;;
28007;SDS011;15333;50.010;20.020;2023-03-26T22:00:21;18.92;;;8.40;;
28007;SDS011;15333;50.010;20.020;2023-03-26T22:03:31;27.40;;;9.45;;
28007;SDS011;15333;50.010;20.020;2023-03-26T22:06:51;19.70;;;9.15;;
28007;SDS011;15333;50.010;20.020;2023-03-26T22:09:56;23.63;;;8.73;;
28007;SDS011;15333;50.010;20.020;2023-03-26T22:12:57;25.67;;;9.35;;
28007;SDS011;15333;50.010;20.020;2023-03-26T22:15:58;19.20;;;9.63;;
28007;SDS011;15333;50.010;20.020;2023-03-26T22:19:00;21.23;;;10.23;;
28007;SDS011;15333;50.010;20.020;2023-03-26T22:22:01;17.20;;;8.15;;
28007;SDS011;15333;50.010;20.020;2023-03-26T22:25:02;18.45;;;8.52;;
28007;SDS011;15333;50.010;20.020;2023-03-26T22:28:03;20.23;;;9.13;;
28007;SDS011;15333;50.010;20.020;2023-03-26T22:31:05;17.33;;;8.55;;
28007;SDS011;15333;50.010;20.020;2023-03-26T22:34:07;19.60;;;9.77;;
28007;SDS011;15333;50.010;20.020;2023-03-26T22:37:09;25.70;;;11.48;;
28007;SDS011;15333;50.010;20.020;2023-03-26T22:40:10;16.67;;;8.82;;
28007;SDS011;15333;50.010;20.020;2023-03-26T22:43:15;21.17;;;9.93;;
28007;SDS011;15333;50.010;20.020;2023-03-26T22:46:16;20.75;;;8.85;;
28007;SDS011;15333;50.010;20.020;2023-03-26T22:49:18;19.95;;;9.35;;
28007;SDS011;15333;50.010;20.020;2023-03-26T22:52:19;19.98;;;9.73;;
28007;SDS011;15333;50.010;20.020;2023-03-26T22:55:21;16.67;;;8.20;;
28007;SDS011;15333;50.010;20.020;2023-03-26T22:58:22;14.13;;;7.93;;
28007;SDS011;15333;50.010;20.020;2023-03-26T23:01:23;18.45;;;10.27;;
28007;SDS011;15333;50.010;20.020;2023-03-26T23:04:24;20.63;;;10.07;;
28007;SDS011;15333;50.010;20.020;2023-03-26T23:07:30;19.75;;;10.88;;
28007;SDS011;15333;50.010;20.020;2023-03-26T23:10:31;23.08;;;10.25;;
28007;SDS011;15333;50.010;20.020;2023-03-26T23:13:32;20.67;;;11.85;;
28007;SDS011;15333;50.010;20.020;2023-03-26T23:16:33;26.20;;;12.65;;
28007;SDS011;15333;50.010;20.020;2023-03-26T23:19:34;33.53;;;16.10;;
28007;SDS011;15333;50.010;20.020;2023-03-26T23:22:36;26.63;;;15.30;;
28007;SDS011;15333;50.010;20.020;2023-03-26T23:25:37;30.15;;;15.60;;
28007;SDS011;15333;50.010;20.020;2023-03-26T23:28:38;27.42;;;14.65;;
28007;SDS011;15333;50.010;20.020;2023-03-26T23:31:40;31.60;;;15.07;;
28007;SDS011;15333;50.010;20.020;2023-03-26T23:34:41;34.63;;;15.85;;
28007;SDS011;15333;50.010;20.020;2023-03-26T23:37:45;30.55;;;15.80;;
28007;SDS011;15333;50.010;20.020;2023-03-26T23:40:45;38.70;;;19.63;;
28007;SDS011;15333;50.010;20.020;2023-03-26T23:43:47;32.30;;;18.70;;
28007;SDS011;15333;50.010;20.020;2023-03-26T23:46:55;39.47;;;20.10;;
28007;SDS011;15333;50.010;20.020;2023-03-26T23:49:57;33.58;;;18.98;;
28007;SDS011;15333;50.010;20.020;2023-03-26T23:52:58;33.92;;;18.70;;
28007;SDS011;15333;50.010;20.020;2023-03-26T23:55:59;34.17;;;19.45;;
28007;SDS011;15333;50.010;20.020;2023-03-26T23:59:00;25.70;;;16.48;;
